VTSS/HDY METAR and TAF weather

Enter ICAO airport designator
Station Type Date Time Source
VTSS METAR 2024/05/28 22:30 UTC NOAA

VTSS 282230Z 24003KT 9999 FEW020 SCT100 27/25 Q1008 NOSIG


Station Type Date Time Source
VTSS Decoded METAR 2024/05/28 22:30 UTC NOAA

Hat Yai, Thailand (VTSS) 06-55N 100-26E 35M
May 28, 2024 - 06:30 PM EDT / 2024.05.28 2230 UTC
Wind: from the WSW (240 degrees) at 3 MPH (3 KT):0
Visibility: greater than 7 mile(s):0
Sky conditions: partly cloudy
Temperature: 80 F (27 C)
Dew Point: 77 F (25 C)
Relative Humidity: 88%
Pressure (altimeter): 29.77 in. Hg (1008 hPa)
ob: VTSS 282230Z 24003KT 9999 FEW020 SCT100 27/25 Q1008 NOSIG
cycle: 22

Station Type Date Time Source
VTSS TAF 2024/05/28 18:36 UTC NOAA